createdAt,value
2017-08-11T00:00:50.954Z,7.50
2017-08-11T00:03:18.424Z,9.23
2017-08-11T00:05:45.857Z,8.90
2017-08-11T00:08:13.337Z,9.37
2017-08-11T00:10:40.794Z,8.57
2017-08-11T00:13:08.849Z,9.03
2017-08-11T00:15:36.321Z,9.13
2017-08-11T00:18:03.797Z,11.67
2017-08-11T00:20:31.232Z,9.53
2017-08-11T00:22:58.704Z,11.27
2017-08-11T00:25:26.343Z,10.23
2017-08-11T00:27:56.415Z,9.80
2017-08-11T00:30:23.939Z,10.10
2017-08-11T00:32:51.520Z,9.80
2017-08-11T00:35:19.066Z,9.30
2017-08-11T00:37:46.513Z,14.27
2017-08-11T00:40:13.983Z,11.03
2017-08-11T00:42:41.547Z,11.13
2017-08-11T00:45:09.038Z,10.30
2017-08-11T00:47:36.493Z,10.47
2017-08-11T00:50:03.972Z,10.73
2017-08-11T00:52:31.444Z,12.47
2017-08-11T00:54:58.995Z,12.03
2017-08-11T00:57:26.455Z,12.80
2017-08-11T00:59:53.934Z,14.17
2017-08-11T01:02:21.577Z,13.77
2017-08-11T01:04:49.051Z,14.43
2017-08-11T01:07:16.605Z,11.97
2017-08-11T01:09:44.076Z,12.67
2017-08-11T01:12:11.601Z,13.27
2017-08-11T01:14:39.189Z,14.17
2017-08-11T01:17:06.743Z,13.30
2017-08-11T01:19:34.194Z,13.50
2017-08-11T01:22:01.668Z,10.80
2017-08-11T01:24:29.114Z,11.00
2017-08-11T01:26:56.757Z,10.27
2017-08-11T01:29:24.431Z,15.33
2017-08-11T01:31:51.903Z,12.10
2017-08-11T01:34:19.445Z,17.33
2017-08-11T01:36:46.954Z,10.27
2017-08-11T01:39:14.410Z,9.10
2017-08-11T01:41:41.918Z,9.43
2017-08-11T01:44:09.362Z,14.07
2017-08-11T01:46:36.839Z,11.70
2017-08-11T01:49:04.377Z,12.03
2017-08-11T01:51:31.951Z,10.10
2017-08-11T01:53:59.489Z,16.27
2017-08-11T01:56:26.965Z,9.63
2017-08-11T01:58:54.440Z,10.30
2017-08-11T02:01:21.961Z,9.00
2017-08-11T02:03:49.537Z,9.10
2017-08-11T02:06:17.111Z,9.77
2017-08-11T02:08:44.565Z,11.30
2017-08-11T02:11:12.116Z,10.67
2017-08-11T02:13:39.676Z,11.60
2017-08-11T02:16:07.127Z,12.57
2017-08-11T02:18:34.891Z,13.07
2017-08-11T02:21:02.360Z,13.93
2017-08-11T02:23:29.889Z,12.80
2017-08-11T02:25:57.370Z,13.03
2017-08-11T02:28:24.851Z,13.80
2017-08-11T02:30:52.322Z,13.97
2017-08-11T02:33:19.936Z,13.13
2017-08-11T02:35:47.403Z,12.47
2017-08-11T02:38:14.934Z,12.43
2017-08-11T02:40:42.408Z,12.27
2017-08-11T02:43:09.917Z,11.37
2017-08-11T02:45:37.433Z,14.40
2017-08-11T02:48:04.889Z,11.80
2017-08-11T02:50:32.439Z,14.47
2017-08-11T02:52:59.911Z,13.47
2017-08-11T02:55:27.463Z,12.43
2017-08-11T02:57:55.013Z,14.97
2017-08-11T03:00:22.521Z,12.60
2017-08-11T03:02:49.980Z,13.20
2017-08-11T03:05:17.484Z,15.43
2017-08-11T03:07:45.077Z,15.67
2017-08-11T03:10:12.551Z,13.23
2017-08-11T03:12:39.995Z,13.77
2017-08-11T03:15:07.469Z,13.27
2017-08-11T03:17:34.963Z,14.40
2017-08-11T03:20:02.539Z,14.53
2017-08-11T03:22:30.001Z,14.30
2017-08-11T03:24:57.457Z,15.37
2017-08-11T03:27:24.946Z,12.37
2017-08-11T03:29:52.405Z,17.33
2017-08-11T03:32:19.869Z,13.90
2017-08-11T03:34:47.395Z,14.83
2017-08-11T03:37:14.983Z,15.73
2017-08-11T03:39:42.437Z,14.87
2017-08-11T03:42:09.934Z,15.03
2017-08-11T03:44:37.401Z,14.50
2017-08-11T03:47:04.871Z,16.33
2017-08-11T03:49:32.436Z,15.97
2017-08-11T03:51:59.971Z,16.00
2017-08-11T03:54:27.406Z,14.50
2017-08-11T03:56:54.861Z,18.53
2017-08-11T03:59:22.443Z,19.07
2017-08-11T04:01:49.903Z,19.53
2017-08-11T04:04:17.445Z,26.50
2017-08-11T04:06:44.885Z,21.37
2017-08-11T04:09:12.355Z,24.47
2017-08-11T04:11:39.816Z,17.90
2017-08-11T04:14:07.297Z,23.20
2017-08-11T04:16:34.831Z,23.60
2017-08-11T04:19:02.312Z,18.70
2017-08-11T04:21:29.859Z,22.27
2017-08-11T04:23:57.331Z,19.63
2017-08-11T04:26:24.885Z,19.20
2017-08-11T04:28:52.364Z,18.83
2017-08-11T04:31:19.819Z,19.27
2017-08-11T04:33:47.300Z,18.17
2017-08-11T04:36:14.807Z,18.90
2017-08-11T04:38:42.299Z,19.83
2017-08-11T04:41:09.757Z,23.03
2017-08-11T04:43:37.266Z,19.50
2017-08-11T04:46:04.743Z,20.00
2017-08-11T04:48:32.493Z,19.40
2017-08-11T04:51:00.059Z,21.33
2017-08-11T04:53:27.523Z,19.83
2017-08-11T04:55:55.072Z,18.30
2017-08-11T04:58:22.535Z,19.80
2017-08-11T05:00:50.291Z,21.37
2017-08-11T05:03:17.748Z,19.40
2017-08-11T05:05:45.320Z,24.60
2017-08-11T05:08:12.776Z,18.30
2017-08-11T05:10:40.324Z,22.60
2017-08-11T05:13:07.787Z,22.40
2017-08-11T05:15:35.259Z,20.40
2017-08-11T05:18:02.785Z,18.67
2017-08-11T05:20:30.229Z,20.20
2017-08-11T05:22:57.809Z,21.80
2017-08-11T05:25:25.266Z,20.50
2017-08-11T05:27:52.835Z,21.20
2017-08-11T05:30:20.365Z,20.93
2017-08-11T05:32:47.840Z,27.40
2017-08-11T05:35:15.297Z,22.20
2017-08-11T05:37:42.789Z,24.40
2017-08-11T05:40:10.251Z,22.20
2017-08-11T05:42:37.735Z,21.97
2017-08-11T05:45:05.224Z,24.00
2017-08-11T05:47:32.690Z,22.20
2017-08-11T05:50:00.151Z,30.60
2017-08-11T05:52:27.589Z,23.73
2017-08-11T05:54:55.059Z,24.30
2017-08-11T05:57:22.524Z,19.43
2017-08-11T05:59:50.069Z,20.40
2017-08-11T06:02:17.521Z,19.77
2017-08-11T06:04:44.999Z,17.47
2017-08-11T06:07:12.525Z,19.37
2017-08-11T06:09:40.103Z,18.13
2017-08-11T06:12:07.671Z,20.90
2017-08-11T06:14:35.213Z,16.93
2017-08-11T06:17:02.653Z,15.70
2017-08-11T06:19:30.132Z,18.30
2017-08-11T06:21:57.595Z,18.00
2017-08-11T06:24:25.095Z,16.00
2017-08-11T06:26:52.597Z,18.10
2017-08-11T06:29:20.056Z,19.40
2017-08-11T06:31:47.529Z,17.83
2017-08-11T06:34:15.045Z,18.27
2017-08-11T06:36:42.515Z,14.80
2017-08-11T06:39:10.007Z,23.27
2017-08-11T06:41:37.540Z,15.90
2017-08-11T06:44:05.023Z,17.47
2017-08-11T06:46:32.502Z,18.60
2017-08-11T06:49:00.013Z,17.87
2017-08-11T06:51:27.571Z,8.87
2017-08-11T06:53:55.012Z,14.27
2017-08-11T06:56:22.484Z,17.27
2017-08-11T06:58:49.940Z,17.97
2017-08-11T07:01:17.431Z,17.53
2017-08-11T07:03:44.957Z,24.20
2017-08-11T07:06:12.397Z,20.27
2017-08-11T07:08:39.892Z,18.30
2017-08-11T07:11:07.341Z,19.20
2017-08-11T07:13:34.938Z,19.13
2017-08-11T07:16:02.448Z,22.03
2017-08-11T07:18:30.152Z,19.53
2017-08-11T07:20:57.616Z,20.77
2017-08-11T07:23:25.119Z,23.40
2017-08-11T07:25:52.592Z,24.87
2017-08-11T07:28:20.070Z,26.27
2017-08-11T07:30:47.599Z,27.03
2017-08-11T07:33:15.204Z,29.77
2017-08-11T07:35:42.664Z,32.20
2017-08-11T07:38:10.132Z,40.67
2017-08-11T07:40:37.608Z,39.73
2017-08-11T07:43:05.061Z,44.90
2017-08-11T07:45:32.690Z,52.43
2017-08-11T07:48:00.148Z,47.37
2017-08-11T07:50:27.656Z,49.20
2017-08-11T07:52:55.206Z,60.13
2017-08-11T07:55:22.772Z,57.77
2017-08-11T07:57:50.227Z,56.97
2017-08-11T08:00:17.786Z,62.00
2017-08-11T08:02:45.260Z,56.20
2017-08-11T08:05:12.803Z,59.40
2017-08-11T08:07:40.361Z,57.03
2017-08-11T08:10:07.923Z,61.07
2017-08-11T08:12:35.487Z,54.77
2017-08-11T08:15:02.930Z,53.17
2017-08-11T08:17:30.404Z,62.03
2017-08-11T08:19:57.880Z,57.07
2017-08-11T08:22:25.405Z,53.63
2017-08-11T08:24:52.877Z,52.67
2017-08-11T08:27:20.348Z,53.90
2017-08-11T08:29:47.803Z,58.67
2017-08-11T08:32:15.336Z,58.93
2017-08-11T08:34:42.815Z,53.40
2017-08-11T08:37:10.349Z,56.93
2017-08-11T08:39:37.806Z,54.70
2017-08-11T08:42:05.283Z,49.47
2017-08-11T08:44:32.737Z,57.73
2017-08-11T08:47:00.222Z,52.90
2017-08-11T08:49:27.733Z,38.83
2017-08-11T08:51:55.193Z,49.43
2017-08-11T08:54:22.668Z,49.60
2017-08-11T08:56:50.135Z,43.93
2017-08-11T08:59:17.674Z,42.70
2017-08-11T09:01:45.129Z,36.40
2017-08-11T09:04:12.678Z,32.63
2017-08-11T09:06:40.304Z,36.97
2017-08-11T09:09:07.795Z,38.10
2017-08-11T09:11:35.273Z,38.53
2017-08-11T09:14:02.811Z,28.20
2017-08-11T09:16:30.272Z,31.07
2017-08-11T09:18:57.749Z,33.40
2017-08-11T09:21:25.203Z,27.47
2017-08-11T09:23:52.739Z,26.40
2017-08-11T09:26:32.061Z,23.23
2017-08-11T09:29:11.332Z,20.03
2017-08-11T09:31:50.847Z,19.07
2017-08-11T09:34:30.180Z,13.73
2017-08-11T09:36:57.636Z,13.73
2017-08-11T09:39:25.109Z,14.10
2017-08-11T09:41:52.563Z,11.40
2017-08-11T09:44:20.023Z,9.90
2017-08-11T09:46:47.571Z,10.20
2017-08-11T09:49:15.130Z,10.67
2017-08-11T09:51:42.668Z,9.27
2017-08-11T09:54:10.228Z,9.90
2017-08-11T09:56:37.905Z,7.60
2017-08-11T09:59:05.461Z,6.03
2017-08-11T10:01:32.943Z,6.20
2017-08-11T10:04:00.426Z,5.10
2017-08-11T10:06:27.882Z,4.60
2017-08-11T10:08:55.395Z,5.53
2017-08-11T10:11:22.858Z,4.17
2017-08-11T10:13:50.405Z,3.60
2017-08-11T10:16:17.945Z,4.10
2017-08-11T10:18:45.420Z,3.17
2017-08-11T10:21:12.971Z,3.17
2017-08-11T10:23:40.430Z,3.27
2017-08-11T10:26:07.996Z,3.60
2017-08-11T10:28:35.558Z,2.43
2017-08-11T10:31:03.112Z,3.27
2017-08-11T10:33:30.583Z,2.70
2017-08-11T10:35:58.090Z,3.50
2017-08-11T10:38:25.579Z,2.53
2017-08-11T10:40:53.034Z,3.20
2017-08-11T10:43:20.484Z,3.03
2017-08-11T10:45:48.312Z,3.43
2017-08-11T10:48:15.805Z,3.13
2017-08-11T10:50:43.235Z,3.43
2017-08-11T10:53:10.711Z,2.93
2017-08-11T10:55:38.177Z,3.07
2017-08-11T10:58:05.643Z,3.93
2017-08-11T11:00:33.154Z,3.50
2017-08-11T11:03:00.643Z,2.10
2017-08-11T11:05:28.116Z,9.73
2017-08-11T11:07:55.807Z,2.73
2017-08-11T11:10:23.389Z,2.57
2017-08-11T11:12:50.895Z,2.53
2017-08-11T11:15:18.451Z,2.30
2017-08-11T11:17:45.921Z,2.03
2017-08-11T11:20:13.469Z,2.90
2017-08-11T11:22:40.901Z,5.67
2017-08-11T11:25:08.386Z,1.83
2017-08-11T11:27:35.835Z,2.33
2017-08-11T11:30:03.382Z,1.83
2017-08-11T11:32:30.820Z,2.00
2017-08-11T11:34:58.306Z,1.70
2017-08-11T11:37:25.767Z,2.50
2017-08-11T11:39:53.223Z,2.17
2017-08-11T11:42:20.662Z,1.60
2017-08-11T11:44:48.238Z,2.47
2017-08-11T11:47:15.797Z,1.70
2017-08-11T11:49:43.351Z,1.87
2017-08-11T11:52:10.820Z,1.90
2017-08-11T11:54:38.288Z,1.83
2017-08-11T11:57:05.827Z,1.70
2017-08-11T11:59:33.271Z,1.87
2017-08-11T12:02:00.857Z,1.50
2017-08-11T12:04:28.295Z,1.50
2017-08-11T12:06:55.759Z,3.20
2017-08-11T12:09:23.319Z,1.70
2017-08-11T12:11:50.873Z,1.47
2017-08-11T12:14:19.144Z,2.03
2017-08-11T12:16:46.626Z,2.30
2017-08-11T12:19:14.164Z,2.63
2017-08-11T12:21:41.673Z,2.60
2017-08-11T12:24:09.337Z,2.97
2017-08-11T12:26:36.801Z,3.80
2017-08-11T12:29:04.297Z,3.13
2017-08-11T12:31:31.764Z,3.10
2017-08-11T12:33:59.311Z,3.40
2017-08-11T12:36:26.868Z,4.53
2017-08-11T12:38:54.309Z,3.67
2017-08-11T12:41:21.869Z,3.10
2017-08-11T12:43:49.310Z,5.10
2017-08-11T12:46:16.760Z,3.63
2017-08-11T12:48:44.255Z,10.97
2017-08-11T12:51:11.698Z,8.47
2017-08-11T12:53:39.681Z,4.53
2017-08-11T12:56:07.371Z,5.67
2017-08-11T12:58:34.859Z,4.97
2017-08-11T13:01:02.362Z,8.00
2017-08-11T13:03:29.832Z,9.40
2017-08-11T13:05:58.237Z,8.30
2017-08-11T13:08:25.753Z,10.70
2017-08-11T13:10:53.289Z,11.60
2017-08-11T13:13:20.818Z,11.07
2017-08-11T13:15:48.324Z,12.27
2017-08-11T13:18:16.187Z,12.93
2017-08-11T13:20:43.748Z,13.77
2017-08-11T13:23:11.240Z,12.00
2017-08-11T13:25:38.766Z,11.57
2017-08-11T13:28:06.209Z,11.07
2017-08-11T13:30:33.893Z,10.40
2017-08-11T13:33:01.341Z,12.63
2017-08-11T13:35:28.811Z,13.60
2017-08-11T13:37:56.260Z,10.63
2017-08-11T13:40:23.731Z,11.03
2017-08-11T13:42:52.031Z,11.90
2017-08-11T13:45:19.508Z,11.57
2017-08-11T13:47:47.000Z,11.33
2017-08-11T13:50:14.461Z,10.63
2017-08-11T13:52:41.911Z,13.23
2017-08-11T13:55:09.706Z,11.70
2017-08-11T13:57:37.235Z,13.23
2017-08-11T14:00:04.710Z,12.23
2017-08-11T14:02:32.249Z,11.20
2017-08-11T14:04:59.713Z,13.17
2017-08-11T14:07:27.149Z,12.83
2017-08-11T14:09:54.600Z,12.73
2017-08-11T14:12:22.112Z,13.60
2017-08-11T14:14:50.824Z,16.27
2017-08-11T14:17:18.316Z,13.53
2017-08-11T14:19:45.762Z,13.10
2017-08-11T14:22:13.325Z,13.80
2017-08-11T14:24:46.376Z,13.90
2017-08-11T14:27:13.888Z,14.17
2017-08-11T14:29:41.437Z,13.10
2017-08-11T14:32:08.919Z,14.63
2017-08-11T14:34:36.373Z,14.17
2017-08-11T14:37:03.853Z,14.67
2017-08-11T14:39:31.378Z,17.50
2017-08-11T14:41:58.900Z,16.47
2017-08-11T14:44:26.485Z,17.67
2017-08-11T14:46:53.941Z,15.87
2017-08-11T14:49:21.406Z,16.97
2017-08-11T14:51:48.937Z,24.07
2017-08-11T14:54:16.513Z,16.90
2017-08-11T14:56:43.958Z,18.27
2017-08-11T14:59:11.439Z,19.53
2017-08-11T15:01:38.984Z,18.47
2017-08-11T15:04:06.463Z,18.67
2017-08-11T15:06:33.919Z,18.53
2017-08-11T15:09:01.446Z,33.97
2017-08-11T15:11:28.895Z,20.97
2017-08-11T15:13:56.357Z,23.43
2017-08-11T15:16:23.832Z,29.87
2017-08-11T15:18:51.388Z,26.07
2017-08-11T15:21:18.883Z,21.53
2017-08-11T15:23:46.349Z,23.53
2017-08-11T15:26:13.911Z,24.13
2017-08-11T15:28:41.367Z,25.80
2017-08-11T15:31:08.875Z,24.07
2017-08-11T15:33:36.339Z,25.40
2017-08-11T15:36:03.848Z,20.70
2017-08-11T15:38:31.339Z,27.20
2017-08-11T15:40:58.819Z,24.33
2017-08-11T15:43:26.345Z,30.90
2017-08-11T15:45:53.919Z,28.27
2017-08-11T15:48:21.374Z,27.10
2017-08-11T15:50:48.841Z,29.90
2017-08-11T15:53:16.392Z,33.00
2017-08-11T15:55:43.948Z,31.80
2017-08-11T15:58:11.405Z,40.60
2017-08-11T16:00:39.368Z,33.93
2017-08-11T16:03:06.824Z,37.67
2017-08-11T16:05:34.281Z,37.83
2017-08-11T16:08:01.795Z,35.93
2017-08-11T16:10:29.251Z,38.77
2017-08-11T16:12:57.127Z,34.83
2017-08-11T16:15:24.584Z,32.03
2017-08-11T16:17:52.049Z,42.73
2017-08-11T16:20:19.500Z,35.10
2017-08-11T16:22:46.974Z,30.47
2017-08-11T16:25:14.431Z,38.00
2017-08-11T16:27:41.908Z,33.07
2017-08-11T16:30:09.361Z,31.30
2017-08-11T16:32:36.843Z,30.50
2017-08-11T16:35:04.290Z,32.90
2017-08-11T16:37:31.851Z,28.20
2017-08-11T16:39:59.303Z,34.57
2017-08-11T16:42:26.799Z,29.43
2017-08-11T16:44:54.288Z,33.00
2017-08-11T16:47:21.746Z,26.93
2017-08-11T16:49:49.214Z,31.00
2017-08-11T16:52:16.777Z,27.77
2017-08-11T16:54:44.271Z,29.77
2017-08-11T16:57:11.796Z,31.03
2017-08-11T16:59:39.288Z,31.47
2017-08-11T17:02:06.744Z,33.57
2017-08-11T17:04:34.216Z,37.13
2017-08-11T17:07:01.669Z,33.57
2017-08-11T17:09:29.139Z,34.30
2017-08-11T17:11:56.600Z,26.10
2017-08-11T17:14:24.085Z,29.53
2017-08-11T17:16:51.546Z,27.57
2017-08-11T17:19:19.023Z,31.60
2017-08-11T17:21:46.550Z,24.40
2017-08-11T17:24:14.020Z,23.93
2017-08-11T17:26:41.483Z,23.90
2017-08-11T17:29:08.967Z,23.67
2017-08-11T17:31:36.423Z,23.43
2017-08-11T17:34:03.947Z,23.37
2017-08-11T17:36:31.415Z,24.43
2017-08-11T17:38:58.862Z,23.30
2017-08-11T17:41:26.417Z,23.13
2017-08-11T17:43:53.873Z,25.60
2017-08-11T17:46:21.343Z,30.33
2017-08-11T17:48:48.878Z,23.53
2017-08-11T17:51:16.448Z,22.30
2017-08-11T17:53:43.905Z,23.50
2017-08-11T17:56:11.392Z,21.07
2017-08-11T17:58:38.955Z,17.47
2017-08-11T18:01:06.480Z,21.30
2017-08-11T18:03:33.925Z,19.17
2017-08-11T18:06:01.500Z,16.30
2017-08-11T18:08:29.052Z,16.30
2017-08-11T18:10:56.552Z,15.10
2017-08-11T18:13:24.066Z,16.17
2017-08-11T18:15:51.551Z,18.23
2017-08-11T18:18:19.084Z,21.53
2017-08-11T18:20:46.540Z,15.40
2017-08-11T18:23:14.036Z,16.37
2017-08-11T18:25:41.495Z,17.23
2017-08-11T18:28:08.959Z,24.67
2017-08-11T18:30:36.397Z,29.93
2017-08-11T18:33:03.872Z,18.93
2017-08-11T18:35:31.331Z,17.63
2017-08-11T18:37:58.836Z,21.50
2017-08-11T18:40:26.282Z,19.63
2017-08-11T18:42:53.788Z,21.87
2017-08-11T18:45:21.292Z,22.33
2017-08-11T18:47:48.749Z,25.57
2017-08-11T18:50:16.200Z,19.37
2017-08-11T18:52:43.661Z,23.33
2017-08-11T18:55:11.147Z,18.73
2017-08-11T18:57:38.623Z,19.53
2017-08-11T19:00:06.085Z,29.73
2017-08-11T19:02:33.658Z,23.00
2017-08-11T19:05:01.132Z,26.20
2017-08-11T19:07:28.602Z,21.27
2017-08-11T19:09:56.132Z,24.83
2017-08-11T19:12:23.585Z,24.30
2017-08-11T19:14:51.092Z,21.13
2017-08-11T19:17:18.559Z,28.23
2017-08-11T19:19:46.042Z,25.33
2017-08-11T19:22:13.563Z,30.20
2017-08-11T19:24:41.028Z,32.40
2017-08-11T19:27:08.480Z,28.37
2017-08-11T19:29:36.023Z,29.17
2017-08-11T19:32:03.457Z,24.97
2017-08-11T19:34:30.949Z,41.47
2017-08-11T19:36:58.424Z,27.87
2017-08-11T19:39:25.875Z,29.63
2017-08-11T19:41:53.417Z,34.23
2017-08-11T19:44:20.876Z,36.70
2017-08-11T19:46:48.366Z,34.20
2017-08-11T19:49:15.824Z,36.13
2017-08-11T19:51:43.285Z,33.50
2017-08-11T19:54:10.739Z,31.13
2017-08-11T19:56:38.261Z,33.20
2017-08-11T19:59:05.719Z,40.63
2017-08-11T20:01:33.275Z,35.40
2017-08-11T20:04:00.726Z,29.83
2017-08-11T20:06:28.200Z,36.13
2017-08-11T20:08:55.660Z,29.60
2017-08-11T20:11:23.354Z,24.47
2017-08-11T20:13:50.853Z,23.40
2017-08-11T20:16:18.321Z,22.20
2017-08-11T20:18:45.815Z,22.60
2017-08-11T20:21:13.390Z,26.93
2017-08-11T20:23:40.985Z,27.70
2017-08-11T20:26:08.429Z,27.40
2017-08-11T20:28:35.898Z,25.57
2017-08-11T20:31:03.356Z,20.03
2017-08-11T20:33:30.949Z,21.53
2017-08-11T20:35:58.578Z,20.07
2017-08-11T20:38:26.097Z,20.37
2017-08-11T20:40:53.612Z,20.57
2017-08-11T20:43:21.163Z,26.60
2017-08-11T20:45:48.610Z,18.13
2017-08-11T20:48:16.415Z,17.83
2017-08-11T20:50:43.939Z,15.83
2017-08-11T20:53:11.472Z,20.70
2017-08-11T20:55:38.946Z,17.10
2017-08-11T20:58:06.403Z,16.27
2017-08-11T21:00:34.131Z,15.00
2017-08-11T21:03:01.584Z,16.43
2017-08-11T21:05:29.063Z,15.30
2017-08-11T21:07:56.515Z,14.33
2017-08-11T21:10:23.999Z,15.10
2017-08-11T21:12:51.626Z,14.43
2017-08-11T21:15:19.113Z,15.53
2017-08-11T21:17:46.676Z,15.40
2017-08-11T21:20:14.155Z,18.30
2017-08-11T21:22:41.597Z,15.30
2017-08-11T21:25:09.067Z,23.57
2017-08-11T21:27:36.513Z,16.87
2017-08-11T21:30:03.992Z,18.57
2017-08-11T21:32:31.520Z,18.37
2017-08-11T21:34:59.079Z,18.00
2017-08-11T21:37:26.555Z,20.03
2017-08-11T21:39:54.037Z,16.90
2017-08-11T21:42:21.601Z,21.03
2017-08-11T21:44:49.067Z,25.43
2017-08-11T21:47:16.575Z,20.03
2017-08-11T21:49:44.039Z,19.20
2017-08-11T21:52:11.519Z,21.13
2017-08-11T21:54:38.995Z,17.97
2017-08-11T21:57:06.477Z,23.63
2017-08-11T21:59:33.932Z,20.27
2017-08-11T22:02:01.416Z,20.50
2017-08-11T22:04:28.857Z,18.97
2017-08-11T22:06:56.427Z,27.30
2017-08-11T22:09:23.887Z,23.50
2017-08-11T22:11:51.367Z,29.73
2017-08-11T22:14:18.880Z,22.10
2017-08-11T22:16:46.348Z,24.00
2017-08-11T22:19:13.910Z,27.80
2017-08-11T22:21:41.465Z,24.97
2017-08-11T22:24:08.934Z,27.50
2017-08-11T22:26:36.387Z,37.87
2017-08-11T22:29:04.103Z,22.47
2017-08-11T22:31:31.580Z,27.83
2017-08-11T22:33:59.160Z,24.50
2017-08-11T22:36:26.715Z,24.77
2017-08-11T22:38:54.229Z,31.50
2017-08-11T22:41:22.149Z,22.77
2017-08-11T22:43:49.699Z,25.17
2017-08-11T22:46:17.167Z,19.80
2017-08-11T22:48:44.653Z,18.97
2017-08-11T22:51:12.103Z,19.40
2017-08-11T22:53:39.559Z,22.90
2017-08-11T22:56:07.025Z,28.30
2017-08-11T22:58:34.480Z,26.63
2017-08-11T23:01:01.955Z,25.13
2017-08-11T23:03:29.455Z,19.67
2017-08-11T23:05:57.012Z,30.33
2017-08-11T23:08:24.491Z,23.27
2017-08-11T23:10:52.033Z,26.87
2017-08-11T23:13:19.491Z,27.10
2017-08-11T23:15:46.957Z,22.57
2017-08-11T23:18:14.500Z,29.93
2017-08-11T23:20:41.978Z,25.70
2017-08-11T23:23:09.527Z,24.17
2017-08-11T23:25:37.085Z,27.00
2017-08-11T23:28:04.538Z,24.40
2017-08-11T23:30:32.397Z,27.40
2017-08-11T23:32:59.955Z,25.47
2017-08-11T23:35:27.435Z,21.70
2017-08-11T23:37:54.971Z,23.27
2017-08-11T23:40:22.413Z,22.07
2017-08-11T23:42:49.951Z,22.13
2017-08-11T23:45:17.397Z,31.70
2017-08-11T23:47:44.891Z,25.37
2017-08-11T23:50:12.359Z,21.60
2017-08-11T23:52:39.913Z,24.37
2017-08-11T23:55:07.389Z,21.60
2017-08-11T23:57:34.863Z,23.40
